createdAt,value
2022-11-05T00:02:01.058Z,19.45
2022-11-05T00:04:47.288Z,25.90
2022-11-05T00:07:33.342Z,20.77
2022-11-05T00:10:25.398Z,21.85
2022-11-05T00:13:13.163Z,20.23
2022-11-05T00:15:59.487Z,23.25
2022-11-05T00:18:27.255Z,27.50
2022-11-05T00:20:54.743Z,24.27
2022-11-05T00:23:41.188Z,22.23
2022-11-05T00:26:11.567Z,23.58
2022-11-05T00:28:44.079Z,21.52
2022-11-05T00:31:13.762Z,23.13
2022-11-05T00:33:43.136Z,19.10
2022-11-05T00:36:11.587Z,23.37
2022-11-05T00:38:39.096Z,21.88
2022-11-05T00:41:06.311Z,22.08
2022-11-05T00:43:52.267Z,21.13
2022-11-05T00:46:19.385Z,25.83
2022-11-05T00:49:05.487Z,22.33
2022-11-05T00:51:33.038Z,22.05
2022-11-05T00:54:03.443Z,26.58
2022-11-05T00:56:34.564Z,27.15
2022-11-05T00:59:02.613Z,21.23
2022-11-05T01:01:29.880Z,24.42
2022-11-05T01:03:57.391Z,21.52
2022-11-05T01:06:24.515Z,29.95
2022-11-05T01:08:52.032Z,23.65
2022-11-05T01:11:37.179Z,26.77
2022-11-05T01:14:13.458Z,23.65
2022-11-05T01:16:40.956Z,26.40
2022-11-05T01:19:10.319Z,25.02
2022-11-05T01:21:38.036Z,22.43
2022-11-05T01:24:05.811Z,23.10
2022-11-05T01:26:33.199Z,23.67
2022-11-05T01:29:00.920Z,23.08
2022-11-05T01:31:29.290Z,21.85
2022-11-05T01:33:56.852Z,18.85
2022-11-05T01:36:24.137Z,22.95
2022-11-05T01:38:52.215Z,23.63
2022-11-05T01:41:19.332Z,23.13
2022-11-05T01:43:51.422Z,20.05
2022-11-05T01:46:43.241Z,22.00
2022-11-05T01:49:14.510Z,19.58
2022-11-05T01:51:45.869Z,22.17
2022-11-05T01:54:17.511Z,18.73
2022-11-05T01:56:53.480Z,20.63
2022-11-05T01:59:37.881Z,18.90
2022-11-05T02:02:07.935Z,17.25
2022-11-05T02:04:43.167Z,18.58
2022-11-05T02:07:12.028Z,17.23
2022-11-05T02:09:48.266Z,15.90
2022-11-05T02:12:15.892Z,16.98
2022-11-05T02:14:43.382Z,18.00
2022-11-05T02:17:31.741Z,15.07
2022-11-05T02:20:29.882Z,17.02
2022-11-05T02:23:28.847Z,17.80
2022-11-05T02:26:08.396Z,17.47
2022-11-05T02:29:03.096Z,18.17
2022-11-05T02:31:36.863Z,17.55
2022-11-05T02:34:12.872Z,16.63
2022-11-05T02:36:49.993Z,19.35
2022-11-05T02:40:23.059Z,17.20
2022-11-05T02:42:56.340Z,16.83
2022-11-05T02:45:39.260Z,18.45
2022-11-05T02:48:37.322Z,18.13
2022-11-05T02:51:23.964Z,20.40
2022-11-05T02:53:58.731Z,20.17
2022-11-05T02:56:39.507Z,18.15
2022-11-05T02:59:07.153Z,19.27
2022-11-05T03:01:36.520Z,18.77
2022-11-05T03:04:08.471Z,18.45
2022-11-05T03:06:50.853Z,17.48
2022-11-05T03:09:27.639Z,20.00
2022-11-05T03:11:57.855Z,20.60
2022-11-05T03:14:33.131Z,18.13
2022-11-05T03:17:12.779Z,21.95
2022-11-05T03:22:26.009Z,20.05
2022-11-05T03:24:57.660Z,18.92
2022-11-05T03:27:30.272Z,18.50
2022-11-05T03:30:05.272Z,22.30
2022-11-05T03:32:35.870Z,22.73
2022-11-05T03:35:10.889Z,20.20
2022-11-05T03:37:41.734Z,20.98
2022-11-05T03:40:15.158Z,20.35
2022-11-05T03:42:48.316Z,20.80
2022-11-05T03:45:20.822Z,19.92
2022-11-05T03:47:52.200Z,21.38
2022-11-05T03:50:45.471Z,22.77
2022-11-05T03:53:24.465Z,18.52
2022-11-05T03:56:03.529Z,22.92
2022-11-05T03:58:31.608Z,21.92
2022-11-05T04:01:02.549Z,22.38
2022-11-05T04:03:36.252Z,21.35
2022-11-05T04:06:25.745Z,19.40
2022-11-05T04:09:11.658Z,20.50
2022-11-05T04:11:58.113Z,19.83
2022-11-05T04:14:26.322Z,19.02
2022-11-05T04:17:09.934Z,19.98
2022-11-05T04:20:00.947Z,21.75
2022-11-05T04:22:49.114Z,18.60
2022-11-05T04:25:17.986Z,20.52
2022-11-05T04:27:46.212Z,18.80
2022-11-05T04:30:18.437Z,27.23
2022-11-05T04:33:05.440Z,21.77
2022-11-05T04:35:42.571Z,23.05
2022-11-05T04:38:12.663Z,23.98
2022-11-05T04:40:39.853Z,22.83
2022-11-05T04:43:14.908Z,22.67
2022-11-05T04:45:43.415Z,20.73
2022-11-05T04:48:11.969Z,26.00
2022-11-05T04:50:39.576Z,21.42
2022-11-05T04:53:07.036Z,19.40
2022-11-05T04:55:34.165Z,21.30
2022-11-05T04:58:01.655Z,26.92
2022-11-05T05:00:28.904Z,22.80
2022-11-05T05:02:56.437Z,22.77
2022-11-05T05:05:23.542Z,23.75
2022-11-05T05:07:50.992Z,23.40
2022-11-05T05:10:18.227Z,23.00
2022-11-05T05:12:45.716Z,22.02
2022-11-05T05:15:12.830Z,24.10
2022-11-05T05:17:40.317Z,24.98
2022-11-05T05:20:39.737Z,24.70
2022-11-05T05:23:07.237Z,22.00
2022-11-05T05:25:34.469Z,23.20
2022-11-05T05:28:02.562Z,24.33
2022-11-05T05:30:29.705Z,25.60
2022-11-05T05:32:57.082Z,23.33
2022-11-05T05:35:24.233Z,24.05
2022-11-05T05:37:56.111Z,24.17
2022-11-05T05:40:24.280Z,23.83
2022-11-05T05:42:55.811Z,27.42
2022-11-05T05:45:23.275Z,24.38
2022-11-05T05:47:50.848Z,24.45
2022-11-05T05:50:18.276Z,24.48
2022-11-05T05:52:53.052Z,31.25
2022-11-05T05:55:20.736Z,27.80
2022-11-05T05:57:48.406Z,25.20
2022-11-05T06:00:15.739Z,27.38
2022-11-05T06:02:43.691Z,24.85
2022-11-05T06:05:11.820Z,25.45
2022-11-05T06:07:39.551Z,25.95
2022-11-05T06:10:07.263Z,24.45
2022-11-05T06:12:35.027Z,22.70
2022-11-05T06:15:02.237Z,23.85
2022-11-05T06:17:29.670Z,22.70
2022-11-05T06:19:57.005Z,26.60
2022-11-05T06:22:24.886Z,26.08
2022-11-05T06:24:52.239Z,24.92
2022-11-05T06:27:19.936Z,27.35
2022-11-05T06:29:47.167Z,26.60
2022-11-05T06:32:14.734Z,28.75
2022-11-05T06:34:41.957Z,29.55
2022-11-05T06:37:09.506Z,30.20
2022-11-05T06:39:36.754Z,28.50
2022-11-05T06:42:17.756Z,27.00
2022-11-05T06:44:45.810Z,25.13
2022-11-05T06:47:13.384Z,25.95
2022-11-05T06:49:40.574Z,29.00
2022-11-05T06:52:08.109Z,30.52
2022-11-05T06:54:35.278Z,28.10
2022-11-05T06:57:04.511Z,27.02
2022-11-05T06:59:32.484Z,29.02
2022-11-05T07:02:00.021Z,32.63
2022-11-05T07:04:27.363Z,30.45
2022-11-05T07:06:54.981Z,25.45
2022-11-05T07:09:22.659Z,27.60
2022-11-05T07:11:50.273Z,29.77
2022-11-05T07:14:17.583Z,46.35
2022-11-05T07:16:45.153Z,40.60
2022-11-05T07:19:12.413Z,30.50
2022-11-05T07:21:40.018Z,65.60
2022-11-05T07:24:07.717Z,37.60
2022-11-05T07:26:35.202Z,38.17
2022-11-05T07:29:02.279Z,31.30
2022-11-05T07:31:29.860Z,122.22
2022-11-05T07:33:57.065Z,114.93
2022-11-05T07:36:25.395Z,86.95
2022-11-05T07:38:57.389Z,49.67
2022-11-05T07:41:28.078Z,177.35
2022-11-05T07:43:55.287Z,50.75
2022-11-05T07:46:23.018Z,39.75
2022-11-05T07:48:50.142Z,48.17
2022-11-05T07:51:18.337Z,44.40
2022-11-05T07:53:45.839Z,55.05
2022-11-05T07:56:13.529Z,48.75
2022-11-05T07:58:41.050Z,36.70
2022-11-05T08:01:08.716Z,38.60
2022-11-05T08:03:36.219Z,33.17
2022-11-05T08:06:03.881Z,37.20
2022-11-05T08:08:31.305Z,43.70
2022-11-05T08:11:06.745Z,39.92
2022-11-05T08:13:34.765Z,48.03
2022-11-05T08:16:03.336Z,46.22
2022-11-05T08:18:32.712Z,46.38
2022-11-05T08:21:02.920Z,41.63
2022-11-05T08:25:58.896Z,45.10
2022-11-05T08:28:26.822Z,46.40
2022-11-05T08:30:56.856Z,58.53
2022-11-05T08:33:25.453Z,67.13
2022-11-05T08:35:53.270Z,79.78
2022-11-05T08:38:20.893Z,52.67
2022-11-05T08:40:58.613Z,53.28
2022-11-05T08:43:26.265Z,48.33
2022-11-05T08:45:55.082Z,45.40
2022-11-05T08:48:22.615Z,50.67
2022-11-05T08:50:50.688Z,45.45
2022-11-05T08:53:18.195Z,47.80
2022-11-05T08:55:47.804Z,64.13
2022-11-05T08:58:17.118Z,73.10
2022-11-05T09:00:48.096Z,55.03
2022-11-05T09:03:16.192Z,55.00
2022-11-05T09:05:44.376Z,71.97
2022-11-05T09:08:16.932Z,67.65
2022-11-05T09:10:45.885Z,50.50
2022-11-05T09:13:20.289Z,40.17
2022-11-05T09:15:50.066Z,37.95
2022-11-05T09:18:19.064Z,37.03
2022-11-05T09:20:47.258Z,38.00
2022-11-05T09:23:15.780Z,40.13
2022-11-05T09:25:44.466Z,32.25
2022-11-05T09:28:20.510Z,49.42
2022-11-05T09:30:50.884Z,38.78
2022-11-05T09:33:24.508Z,31.48
2022-11-05T09:35:53.720Z,38.47
2022-11-05T09:38:21.045Z,38.40
2022-11-05T09:40:59.445Z,37.78
2022-11-05T09:43:35.115Z,49.10
2022-11-05T09:46:12.145Z,68.85
2022-11-05T09:48:42.454Z,32.45
2022-11-05T09:51:19.262Z,21.27
2022-11-05T09:53:49.948Z,21.60
2022-11-05T09:56:30.137Z,18.55
2022-11-05T09:59:06.080Z,15.73
2022-11-05T10:01:38.002Z,19.75
2022-11-05T10:04:14.482Z,14.93
2022-11-05T10:06:49.246Z,16.98
2022-11-05T10:09:45.470Z,75.97
2022-11-05T10:12:45.302Z,26.27
2022-11-05T10:15:21.364Z,9.90
2022-11-05T10:17:59.371Z,8.40
2022-11-05T10:20:33.876Z,13.20
2022-11-05T10:23:18.866Z,12.65
2022-11-05T10:25:58.731Z,12.77
2022-11-05T10:31:21.301Z,11.13
2022-11-05T10:33:54.890Z,18.70
2022-11-05T10:36:26.370Z,16.15
2022-11-05T10:38:59.178Z,10.65
2022-11-05T10:41:32.556Z,13.00
2022-11-05T10:44:18.788Z,9.93
2022-11-05T10:46:46.705Z,6.80
2022-11-05T10:49:18.932Z,11.55
2022-11-05T10:51:52.683Z,13.63
2022-11-05T10:54:23.074Z,9.13
2022-11-05T10:56:51.035Z,6.93
2022-11-05T10:59:28.010Z,9.70
2022-11-05T11:02:24.788Z,10.82
2022-11-05T11:04:54.163Z,12.65
2022-11-05T11:07:26.894Z,10.02
2022-11-05T11:09:55.070Z,6.03
2022-11-05T11:12:27.778Z,27.50
2022-11-05T11:15:02.295Z,20.42
2022-11-05T11:17:32.500Z,11.98
2022-11-05T11:20:24.352Z,10.40
2022-11-05T11:23:14.854Z,14.13
2022-11-05T11:25:46.677Z,7.55
2022-11-05T11:28:39.862Z,16.77
2022-11-05T11:31:23.058Z,17.75
2022-11-05T11:34:02.502Z,35.50
2022-11-05T11:36:46.363Z,33.20
2022-11-05T11:39:26.759Z,24.95
2022-11-05T11:41:58.626Z,21.77
2022-11-05T11:44:31.793Z,16.08
2022-11-05T11:47:10.576Z,14.75
2022-11-05T11:49:58.010Z,10.25
2022-11-05T11:52:31.662Z,13.35
2022-11-05T11:55:21.779Z,9.68
2022-11-05T11:57:53.522Z,7.78
2022-11-05T12:00:24.692Z,15.40
2022-11-05T12:03:20.212Z,13.55
2022-11-05T12:05:48.426Z,11.43
2022-11-05T12:08:25.423Z,9.85
2022-11-05T12:11:14.856Z,11.55
2022-11-05T12:13:52.770Z,10.80
2022-11-05T12:16:29.453Z,17.10
2022-11-05T12:19:12.960Z,14.90
2022-11-05T12:22:24.906Z,12.23
2022-11-05T12:24:52.864Z,11.30
2022-11-05T12:27:39.072Z,14.75
2022-11-05T12:30:21.981Z,19.20
2022-11-05T12:33:34.327Z,30.73
2022-11-05T12:36:20.689Z,11.48
2022-11-05T12:39:40.826Z,12.82
2022-11-05T12:42:31.804Z,20.70
2022-11-05T12:45:22.729Z,15.98
2022-11-05T12:48:06.859Z,15.85
2022-11-05T12:50:46.592Z,15.73
2022-11-05T12:53:29.660Z,12.43
2022-11-05T12:56:01.713Z,16.00
2022-11-05T12:58:37.203Z,14.80
2022-11-05T13:01:27.562Z,15.55
2022-11-05T13:04:06.913Z,14.55
2022-11-05T13:06:42.334Z,141.90
2022-11-05T13:09:13.149Z,52.83
2022-11-05T13:12:08.410Z,36.95
2022-11-05T13:14:51.355Z,22.38
2022-11-05T13:17:22.584Z,12.82
2022-11-05T13:20:06.075Z,18.52
2022-11-05T13:22:45.194Z,18.63
2022-11-05T13:25:29.070Z,21.95
2022-11-05T13:28:24.067Z,32.47
2022-11-05T13:30:55.155Z,25.25
2022-11-05T13:33:42.815Z,33.83
2022-11-05T13:36:38.926Z,35.20
2022-11-05T13:39:20.914Z,32.55
2022-11-05T13:42:07.276Z,13.52
2022-11-05T13:44:53.950Z,26.50
2022-11-05T13:47:21.627Z,16.88
2022-11-05T13:50:09.859Z,17.88
2022-11-05T13:52:56.300Z,16.63
2022-11-05T13:55:58.947Z,17.85
2022-11-05T13:58:54.443Z,17.02
2022-11-05T14:01:43.800Z,24.30
2022-11-05T14:04:33.368Z,26.60
2022-11-05T14:07:37.814Z,48.25
2022-11-05T14:10:28.852Z,28.98
2022-11-05T14:12:59.491Z,58.83
2022-11-05T14:15:30.143Z,29.88
2022-11-05T14:18:05.103Z,35.67
2022-11-05T14:20:32.759Z,26.60
2022-11-05T14:23:24.803Z,45.58
2022-11-05T14:26:11.641Z,52.97
2022-11-05T14:28:43.136Z,18.58
2022-11-05T14:31:16.788Z,14.85
2022-11-05T14:33:55.303Z,26.70
2022-11-05T14:36:30.397Z,31.05
2022-11-05T14:39:12.740Z,33.40
2022-11-05T14:42:18.019Z,61.90
2022-11-05T14:44:57.379Z,39.33
2022-11-05T14:47:28.747Z,43.25
2022-11-05T14:50:16.193Z,29.63
2022-11-05T14:52:53.061Z,58.92
2022-11-05T14:55:29.280Z,100.72
2022-11-05T14:57:57.055Z,50.53
2022-11-05T15:00:30.443Z,61.33
2022-11-05T15:03:01.559Z,42.80
2022-11-05T15:05:33.387Z,56.22
2022-11-05T15:08:26.529Z,47.78
2022-11-05T15:10:57.734Z,46.75
2022-11-05T15:13:51.583Z,62.75
2022-11-05T15:16:41.692Z,49.63
2022-11-05T15:19:20.547Z,137.75
2022-11-05T15:21:49.413Z,113.30
2022-11-05T15:24:19.334Z,33.45
2022-11-05T15:26:49.657Z,64.55
2022-11-05T15:29:21.739Z,30.27
2022-11-05T15:31:50.569Z,22.20
2022-11-05T15:34:32.530Z,19.77
2022-11-05T15:37:27.323Z,24.55
2022-11-05T15:39:55.735Z,17.23
2022-11-05T15:42:26.125Z,18.25
2022-11-05T15:45:00.193Z,27.08
2022-11-05T15:47:31.450Z,51.65
2022-11-05T15:50:03.420Z,69.53
2022-11-05T15:52:42.405Z,55.42
2022-11-05T15:55:13.035Z,49.83
2022-11-05T15:57:51.112Z,49.42
2022-11-05T16:00:28.269Z,30.27
2022-11-05T16:03:05.904Z,26.63
2022-11-05T16:05:36.213Z,26.27
2022-11-05T16:08:06.271Z,24.13
2022-11-05T16:10:39.024Z,25.65
2022-11-05T16:13:21.745Z,34.50
2022-11-05T16:15:54.985Z,35.08
2022-11-05T16:18:25.479Z,31.13
2022-11-05T16:21:06.806Z,35.45
2022-11-05T16:23:50.415Z,29.23
2022-11-05T16:29:29.512Z,48.25
2022-11-05T16:32:00.228Z,45.00
2022-11-05T16:34:38.006Z,110.18
2022-11-05T16:37:08.681Z,131.85
2022-11-05T16:39:36.395Z,154.70
2022-11-05T16:42:22.610Z,98.47
2022-11-05T16:44:52.126Z,59.17
2022-11-05T16:49:49.925Z,42.65
2022-11-05T16:52:18.791Z,73.70
2022-11-05T16:54:46.602Z,63.85
2022-11-05T16:57:24.293Z,50.90
2022-11-05T16:59:52.996Z,44.15
2022-11-05T17:02:22.215Z,55.90
2022-11-05T17:04:49.796Z,107.95
2022-11-05T17:07:17.664Z,52.45
2022-11-05T17:09:45.509Z,131.70
2022-11-05T17:12:15.289Z,71.25
2022-11-05T17:14:43.752Z,65.97
2022-11-05T17:17:12.731Z,50.92
2022-11-05T17:19:46.961Z,65.78
2022-11-05T17:22:15.688Z,32.42
2022-11-05T17:24:44.066Z,36.60
2022-11-05T17:27:12.877Z,35.45
2022-11-05T17:29:40.885Z,46.22
2022-11-05T17:32:09.832Z,68.13
2022-11-05T17:34:37.928Z,47.10
2022-11-05T17:37:06.379Z,57.17
2022-11-05T17:39:34.860Z,42.83
2022-11-05T17:42:03.467Z,32.13
2022-11-05T17:44:32.286Z,32.10
2022-11-05T17:47:01.099Z,26.73
2022-11-05T17:49:29.443Z,28.30
2022-11-05T17:51:58.129Z,31.85
2022-11-05T17:54:25.835Z,26.90
2022-11-05T17:56:56.969Z,18.75
2022-11-05T17:59:25.125Z,26.25
2022-11-05T18:01:53.902Z,20.50
2022-11-05T18:04:22.426Z,28.58
2022-11-05T18:06:51.773Z,34.55
2022-11-05T18:09:20.047Z,24.27
2022-11-05T18:11:51.567Z,20.98
2022-11-05T18:14:23.846Z,26.15
2022-11-05T18:16:55.708Z,24.40
2022-11-05T18:19:23.793Z,34.40
2022-11-05T18:21:52.377Z,27.35
2022-11-05T18:24:20.277Z,23.40
2022-11-05T18:26:48.253Z,23.05
2022-11-05T18:29:15.774Z,15.80
2022-11-05T18:31:43.653Z,24.65
2022-11-05T18:34:11.814Z,18.17
2022-11-05T18:36:39.769Z,18.33
2022-11-05T18:39:08.673Z,27.73
2022-11-05T18:41:36.464Z,23.73
2022-11-05T18:44:04.865Z,18.63
2022-11-05T18:46:57.046Z,30.17
2022-11-05T18:49:22.121Z,25.98
2022-11-05T18:51:50.558Z,44.17
2022-11-05T18:54:18.783Z,31.50
2022-11-05T18:56:47.767Z,24.40
2022-11-05T19:02:08.251Z,37.25
2022-11-05T19:04:37.749Z,27.80
2022-11-05T19:07:08.039Z,28.05
2022-11-05T19:09:37.382Z,37.13
2022-11-05T19:12:07.458Z,33.30
2022-11-05T19:14:35.915Z,34.40
2022-11-05T19:17:04.950Z,35.70
2022-11-05T19:19:33.272Z,31.37
2022-11-05T19:22:01.441Z,30.08
2022-11-05T19:24:29.517Z,35.72
2022-11-05T19:26:57.557Z,35.83
2022-11-05T19:29:25.264Z,34.53
2022-11-05T19:31:53.614Z,30.30
2022-11-05T19:34:21.272Z,33.47
2022-11-05T19:36:49.718Z,30.55
2022-11-05T19:39:17.474Z,30.88
2022-11-05T19:41:45.381Z,40.35
2022-11-05T19:44:13.399Z,37.53
2022-11-05T19:46:41.658Z,37.92
2022-11-05T19:49:09.315Z,29.50
2022-11-05T19:51:37.932Z,30.70
2022-11-05T19:54:08.576Z,33.45
2022-11-05T19:56:38.587Z,38.05
2022-11-05T19:59:07.203Z,40.97
2022-11-05T20:01:35.782Z,34.75
2022-11-05T20:04:04.905Z,68.65
2022-11-05T20:06:39.187Z,108.30
2022-11-05T20:09:27.635Z,74.38
2022-11-05T20:11:56.728Z,74.30
2022-11-05T20:14:25.830Z,89.78
2022-11-05T20:16:54.785Z,51.55
2022-11-05T20:19:24.561Z,63.63
2022-11-05T20:21:52.464Z,67.30
2022-11-05T20:24:24.711Z,41.50
2022-11-05T20:26:57.411Z,31.67
2022-11-05T20:29:30.561Z,55.83
2022-11-05T20:32:02.569Z,41.33
2022-11-05T20:34:31.547Z,31.17
2022-11-05T20:36:59.794Z,30.88
2022-11-05T20:39:27.743Z,54.97
2022-11-05T20:41:56.995Z,51.58
2022-11-05T20:44:24.479Z,28.70
2022-11-05T20:46:52.538Z,27.63
2022-11-05T20:49:24.973Z,25.63
2022-11-05T20:51:54.086Z,32.00
2022-11-05T20:54:22.344Z,38.22
2022-11-05T20:56:50.608Z,37.60
2022-11-05T20:59:18.549Z,77.90
2022-11-05T21:01:46.694Z,98.88
2022-11-05T21:04:14.518Z,52.70
2022-11-05T21:06:42.418Z,39.60
2022-11-05T21:09:10.383Z,40.33
2022-11-05T21:11:56.897Z,32.78
2022-11-05T21:14:24.157Z,37.45
2022-11-05T21:16:52.198Z,56.78
2022-11-05T21:19:19.858Z,38.60
2022-11-05T21:21:47.933Z,34.13
2022-11-05T21:24:15.579Z,36.05
2022-11-05T21:26:43.609Z,40.90
2022-11-05T21:29:11.222Z,24.23
2022-11-05T21:31:38.920Z,49.88
2022-11-05T21:34:06.233Z,47.72
2022-11-05T21:36:34.453Z,26.80
2022-11-05T21:39:02.045Z,31.63
2022-11-05T21:41:29.821Z,28.67
2022-11-05T21:43:57.394Z,58.08
2022-11-05T21:46:26.094Z,36.22
2022-11-05T21:48:54.377Z,35.20
2022-11-05T21:51:41.482Z,30.88
2022-11-05T21:54:29.722Z,32.33
2022-11-05T21:57:16.678Z,44.80
2022-11-05T21:59:55.372Z,96.50
2022-11-05T22:02:25.521Z,75.10
2022-11-05T22:07:26.601Z,31.00
2022-11-05T22:09:54.527Z,20.70
2022-11-05T22:12:24.565Z,30.08
2022-11-05T22:14:53.359Z,24.25
2022-11-05T22:17:21.948Z,29.45
2022-11-05T22:19:50.875Z,23.77
2022-11-05T22:22:19.416Z,30.73
2022-11-05T22:24:47.746Z,24.70
2022-11-05T22:27:18.614Z,23.02
2022-11-05T22:29:46.341Z,26.05
2022-11-05T22:32:14.421Z,38.45
2022-11-05T22:34:42.423Z,29.98
2022-11-05T22:37:12.489Z,32.28
2022-11-05T22:39:40.386Z,21.23
2022-11-05T22:42:08.877Z,22.17
2022-11-05T22:44:37.313Z,42.70
2022-11-05T22:47:05.731Z,40.78
2022-11-05T22:49:34.650Z,27.52
2022-11-05T22:52:03.400Z,22.02
2022-11-05T22:54:36.412Z,26.55
2022-11-05T22:57:06.633Z,29.58
2022-11-05T22:59:34.298Z,20.23
2022-11-05T23:02:08.204Z,29.73
2022-11-05T23:04:38.411Z,24.00
2022-11-05T23:07:27.896Z,20.70
2022-11-05T23:10:14.735Z,17.30
2022-11-05T23:12:44.822Z,12.65
2022-11-05T23:18:19.235Z,18.30
2022-11-05T23:21:05.320Z,20.48
2022-11-05T23:23:51.958Z,43.55
2022-11-05T23:26:38.243Z,32.03
2022-11-05T23:29:05.962Z,22.50
2022-11-05T23:31:51.582Z,16.77
2022-11-05T23:34:19.178Z,15.93
2022-11-05T23:37:04.772Z,14.00
2022-11-05T23:39:33.448Z,14.10
2022-11-05T23:42:21.832Z,15.48
2022-11-05T23:45:11.731Z,14.40
2022-11-05T23:48:00.767Z,25.50
2022-11-05T23:50:33.217Z,22.77
2022-11-05T23:53:04.935Z,14.85
2022-11-05T23:55:32.788Z,15.15
2022-11-05T23:58:00.184Z,18.05
